Shacktown, North Carolina
Current Conditions -  °F | °C
As of 7:54 AM on Friday 28 Nov 2014 (Local Time) from KINT Reporting Station
Clear Clear  
Wind Chill: 23°   Ceiling: Unl
Heat Index: 31°   Visibility: 10mi
Dew Point: 16°   Wind: 8mph
Humidity: 54%   Direction: 340°NNW
Pressure: 30.35"   Gusts: NA
Location:  36.1267°N, 80.6582°W
Report Text: KINT 281254Z 34007KT 10SM CLR M01/M09 A3035 RMK AO2 SLP282 T10061089
Loading
Personal Weather Stations






























Interactive Weather Map New forecast layout! Learn more

10-Day Weather Forecast

Advertisements
Track Severe Weather on mobile